Thursday, September 20, 2018, 8:39 AM EDT
Back to Local

KSNC, Chester, Chester Airport

Location: Chester, CT, United States Lat: 41.384
Local Time: 8:39 AM EDT (12:39 GMT) Lon: -72.506
Time Zone: US/Eastern Elev: 416 ft

Show me the last for .
Show Decoded

2018-09-20 08:15 METAR KSNC 201215Z AUTO 04009KT 10SM BKN050 18/13 A3020 RMK AO2 =
2018-09-20 07:55 METAR KSNC 201155Z AUTO 03009KT 10SM BKN050 17/13 A3019 RMK AO2 =
2018-09-20 07:35 METAR KSNC 201135Z AUTO 03006KT 10SM OVC050 17/13 A3018 RMK AO2 =
2018-09-20 07:15 METAR KSNC 201115Z AUTO 04005KT 10SM OVC050 16/13 A3018 RMK AO2 =
2018-09-20 06:55 METAR KSNC 201055Z AUTO 03005KT 10SM OVC050 15/13 A3017 RMK AO2 =
2018-09-20 06:35 METAR KSNC 201035Z AUTO 03005KT 10SM BKN050 15/13 A3016 RMK AO2 =
2018-09-20 06:15 METAR KSNC 201015Z AUTO 02004KT 10SM FEW036 SCT050 14/13 A3016 RMK AO2 =
2018-09-20 05:55 METAR KSNC 200955Z AUTO 02003KT 10SM BKN036 14/13 A3016 RMK AO2 =
2018-09-20 05:35 METAR KSNC 200935Z AUTO 36004KT 10SM FEW035 SCT050 14/13 A3014 RMK AO2 =
2018-09-20 05:15 METAR KSNC 200915Z AUTO 35005KT 10SM FEW050 14/13 A3014 RMK AO2 =
2018-09-20 04:55 METAR KSNC 200855Z AUTO 03005KT 10SM SCT055 14/13 A3012 RMK AO2 =
2018-09-20 04:35 METAR KSNC 200835Z AUTO 04004KT 10SM BKN055 15/13 A3012 RMK AO2 =
2018-09-20 04:15 METAR KSNC 200815Z AUTO 03005KT 10SM OVC055 15/13 A3012 RMK AO2 =
2018-09-20 03:55 METAR KSNC 200755Z AUTO 02005KT 10SM OVC055 15/13 A3012 RMK AO2 =
2018-09-20 03:35 METAR KSNC 200735Z AUTO 02004KT 10SM BKN055 15/13 A3012 RMK AO2 =
2018-09-20 03:15 METAR KSNC 200715Z AUTO 01005KT 10SM CLR 14/13 A3012 RMK AO2 =
2018-09-20 02:55 METAR KSNC 200655Z AUTO 36004KT 10SM CLR 14/13 A3012 RMK AO2 =
2018-09-20 02:35 METAR KSNC 200635Z AUTO 03004KT 10SM CLR 14/13 A3011 RMK AO2 =
2018-09-20 02:15 METAR KSNC 200615Z AUTO 03004KT 10SM FEW035 15/13 A3011 RMK AO2 =
2018-09-20 01:55 METAR KSNC 200555Z AUTO 00000KT 10SM CLR 15/13 A3011 RMK AO2 =
2018-09-20 01:35 METAR KSNC 200535Z AUTO 05005KT 10SM CLR 15/13 A3011 RMK AO2 =
2018-09-20 01:15 METAR KSNC 200515Z AUTO 05005KT 10SM CLR 15/13 A3011 RMK AO2 =
2018-09-20 00:55 METAR KSNC 200455Z AUTO 03004KT 10SM CLR 15/13 A3011 RMK AO2 =
2018-09-20 00:35 METAR KSNC 200435Z AUTO 04005KT 10SM CLR 15/13 A3010 RMK AO2 =
2018-09-20 00:15 METAR KSNC 200415Z AUTO 04006KT 10SM FEW036 SCT050 15/14 A3011 RMK AO2 =
2018-09-19 23:55 METAR KSNC 200355Z AUTO 05004KT 10SM OVC035 16/14 A3010 RMK AO2 =
2018-09-19 23:35 METAR KSNC 200335Z AUTO 03005KT 10SM FEW017 BKN031 BKN038 16/14 A3010 RMK AO2 =
2018-09-19 23:15 METAR KSNC 200315Z AUTO 05005KT 10SM BKN031 BKN037 OVC050 16/14 A3009 RMK AO2 =
2018-09-19 22:55 METAR KSNC 200255Z AUTO 04004KT 10SM BKN031 OVC050 17/14 A3009 RMK AO2 =
2018-09-19 22:35 METAR KSNC 200235Z AUTO 05005KT 10SM FEW013 OVC030 17/14 A3009 RMK AO2 =
2018-09-19 22:15 METAR KSNC 200215Z AUTO 04007KT 10SM FEW013 OVC029 17/14 A3008 RMK AO2 =
2018-09-19 21:55 METAR KSNC 200155Z AUTO 06004G11KT 10SM FEW013 FEW018 BKN029 17/14 A3007 RMK AO2
                 =
2018-09-19 18:15 METAR KSNC 192215Z AUTO 07006KT 10SM SCT017 20/17 A2999 RMK AO2 =
2018-09-19 17:55 METAR KSNC 192155Z AUTO 07006KT 10SM -RA BKN020 21/17 A2998 RMK AO2 =
2018-09-19 17:35 METAR KSNC 192135Z AUTO 06007KT 030V090 10SM BKN020 22/17 A2997 RMK AO2 =
2018-09-19 17:15 METAR KSNC 192115Z AUTO 05004KT 10SM SCT020 22/18 A2996 RMK AO2 =
2018-09-19 16:55 METAR KSNC 192055Z AUTO 07008KT 050V110 10SM FEW017 23/18 A2994 RMK AO2 =
2018-09-19 16:35 METAR KSNC 192035Z AUTO 06006KT 10SM SCT023 SCT029 23/18 A2994 RMK AO2 =
2018-09-19 16:15 METAR KSNC 192015Z AUTO 07008KT 10SM SCT021 BKN027 BKN041 23/18 A2994 RMK AO2 =
2018-09-19 15:55 METAR KSNC 191955Z AUTO VRB06KT 10SM SCT022 SCT028 24/18 A2993 RMK AO2 =
2018-09-19 15:35 METAR KSNC 191935Z AUTO 05005KT 10SM FEW019 FEW029 SCT044 23/18 A2993 RMK AO2 =
2018-09-19 15:15 METAR KSNC 191915Z AUTO 07005KT 10SM FEW021 FEW027 BKN033 24/18 A2993 RMK AO2 =
2018-09-19 14:55 METAR KSNC 191855Z AUTO 07007KT 10SM FEW018 SCT032 BKN042 25/18 A2994 RMK AO2 =
2018-09-19 14:35 METAR KSNC 191835Z AUTO 07007KT 10SM FEW019 SCT025 SCT039 24/18 A2993 RMK AO2 =
2018-09-19 14:15 METAR KSNC 191815Z AUTO 08005KT 10SM SCT018 BKN024 BKN039 24/18 A2993 RMK AO2 =
2018-09-19 13:55 METAR KSNC 191755Z AUTO 06007KT 10SM SCT018 BKN023 BKN120 24/19 A2993 RMK AO2 =
2018-09-19 13:35 METAR KSNC 191735Z AUTO 07006KT 10SM BKN016 BKN021 BKN026 23/19 A2993 RMK AO2 =
2018-09-19 13:15 METAR KSNC 191715Z AUTO 06008KT 10SM BKN016 BKN028 BKN039 23/19 A2993 RMK AO2 =
2018-09-19 12:55 METAR KSNC 191655Z AUTO VRB06KT 10SM SCT015 SCT038 SCT046 23/19 A2994 RMK AO2 =
2018-09-19 12:35 METAR KSNC 191635Z AUTO 07007KT 10SM SCT014 BKN019 BKN025 23/19 A2993 RMK AO2 =
2018-09-19 12:15 METAR KSNC 191615Z AUTO 07008KT 10SM SCT012 BKN017 OVC050 23/19 A2993 RMK AO2 =
2018-09-19 11:55 METAR KSNC 191555Z AUTO 07008KT 10SM 22/19 A2992 RMK AO2 =
2018-09-19 11:35 METAR KSNC 191535Z AUTO 06007KT 10SM 22/20 A2993 RMK AO2 =
2018-09-19 11:15 METAR KSNC 191515Z AUTO 02005KT 10SM OVC013 22/20 A2992 RMK AO2 =
2018-09-19 10:35 METAR KSNC 191435Z AUTO 03006KT 10SM BKN010 OVC013 21/20 A2992 RMK AO2 =
2018-09-19 10:15 METAR KSNC 191415Z AUTO VRB05KT 10SM BKN007 OVC010 21/20 A2992 RMK AO2 =
2018-09-19 09:55 METAR KSNC 191355Z AUTO 02004KT 9SM OVC006 21/20 A2991 RMK AO2 =
2018-09-19 09:35 METAR KSNC 191335Z AUTO 02006KT 9SM OVC005 20/20 A2990 RMK AO2 =
2018-09-19 09:15 METAR KSNC 191315Z AUTO 01006KT 9SM OVC004 20/20 A2989 RMK AO2 =
2018-09-19 08:55 METAR KSNC 191255Z AUTO 02005KT 9SM OVC004 20/20 A2988 RMK AO2 =

Support USWX by starting your Amazon purchase here.